Terminal Aerodrome Forecast
Issued by NWS

Current Version | Previous Version | Text Only | Print | Product List | Glossary On
Versions: 1 2 3 4 5 6 7 8 9 10 11 12 13 14 15 16 17 18
897
FTUS46 KSEW 242005 AAB
TAFOLM
TAF AMD
KOLM 242005Z 2420/2518 21010G20KT P6SM -SHRA BKN025 BKN045
     FM242100 21010G20KT P6SM SCT025 BKN045
      TEMPO 2421/2501 -SHRA BKN030 OVC045
     FM250300 21008KT P6SM VCSH SCT030 BKN050
     FM251000 20006KT P6SM VCSH BKN025 BKN045=

USA.gov is the U.S. government's official web portal to all federal, state and local government web resources and services.